Time;durP1;ratioP1;P1;durP2;ratioP2;P2;SDS_P1;SDS_P2;PMS_P1;PMS_P2;Temp;Humidity;BMP_temperature;BMP_pressure;BME280_temperature;BME280_humidity;BME280_pressure;Samples;Min_cycle;Max_cycle;Signal;HPM_P1;HPM_P2
2023/01/04 00:01:57;;;;;;;216.87;100.67;;;1.70;99.90;;;;;;10402878;28;20071;-77
2023/01/04 00:06:57;;;;;;;198.53;86.63;;;1.50;99.90;;;;;;10403480;28;20029;-76
2023/01/04 00:11:58;;;;;;;184.17;83.40;;;1.60;99.90;;;;;;10403194;28;20049;-76
2023/01/04 00:16:58;;;;;;;198.03;84.93;;;1.70;99.90;;;;;;10401527;28;20701;-76
2023/01/04 00:21:59;;;;;;;230.27;98.40;;;1.70;99.90;;;;;;10403669;28;20096;-76
2023/01/04 00:26:59;;;;;;;240.30;96.27;;;1.70;99.90;;;;;;10402469;28;20135;-75
2023/01/04 00:32:00;;;;;;;199.07;89.77;;;1.70;99.90;;;;;;10401911;28;20115;-77
2023/01/04 00:37:00;;;;;;;232.23;100.77;;;1.70;99.90;;;;;;10402240;28;20037;-75
2023/01/04 00:42:04;;;;;;;204.53;95.07;;;1.70;99.90;;;;;;10401854;28;20037;-77
2023/01/04 00:47:04;;;;;;;261.87;112.63;;;1.70;99.90;;;;;;10394804;28;20124;-76
2023/01/04 00:52:05;;;;;;;228.33;103.70;;;1.70;99.90;;;;;;10402337;28;20416;-77
2023/01/04 00:57:07;;;;;;;268.47;113.07;;;1.60;99.90;;;;;;10400713;28;20038;-76
2023/01/04 01:02:08;;;;;;;210.57;100.97;;;1.60;99.90;;;;;;10401252;28;20029;-77
2023/01/04 01:07:08;;;;;;;186.10;89.87;;;1.70;99.90;;;;;;10400899;28;20505;-76
2023/01/04 01:12:09;;;;;;;234.43;97.73;;;1.70;99.90;;;;;;10441494;23;20423;-77
2023/01/04 01:17:09;;;;;;;240.77;101.43;;;1.70;99.90;;;;;;10439245;28;20040;-75
2023/01/04 01:22:10;;;;;;;203.90;97.43;;;1.60;99.90;;;;;;10443837;28;20136;-76
2023/01/04 01:27:11;;;;;;;282.90;109.10;;;1.60;99.90;;;;;;10443546;28;20092;-76
2023/01/04 01:32:11;;;;;;;231.40;101.43;;;1.50;99.90;;;;;;10442743;28;20086;-78
2023/01/04 01:37:12;;;;;;;272.70;109.43;;;1.40;99.90;;;;;;10442444;28;20036;-76
2023/01/04 01:42:20;;;;;;;274.20;111.00;;;1.30;99.90;;;;;;10466623;28;20036;-76
2023/01/04 01:47:24;;;;;;;330.30;121.87;;;1.30;99.90;;;;;;10453145;28;20074;-78
2023/01/04 01:52:30;;;;;;;238.13;99.03;;;1.30;99.90;;;;;;10452079;28;20473;-76
2023/01/04 01:57:34;;;;;;;172.70;84.57;;;1.30;99.90;;;;;;10442107;28;20119;-76
2023/01/04 02:02:35;;;;;;;267.27;99.13;;;1.30;99.90;;;;;;10440422;28;20059;-76
2023/01/04 02:07:36;;;;;;;238.87;95.80;;;1.20;99.90;;;;;;10441752;28;20107;-78
2023/01/04 02:12:37;;;;;;;211.27;91.33;;;1.20;99.90;;;;;;10442462;28;20052;-77
2023/01/04 02:17:43;;;;;;;217.83;92.87;;;1.20;99.90;;;;;;10441109;28;20037;-76
2023/01/04 02:22:55;;;;;;;141.13;72.23;;;1.30;99.90;;;;;;10449058;28;20039;-78
2023/01/04 02:28:13;;;;;;;138.90;67.23;;;1.20;99.90;;;;;;10442317;28;20035;-77
2023/01/04 02:33:42;;;;;;;148.03;70.77;;;1.10;99.90;;;;;;10441589;28;20084;-76
2023/01/04 02:38:54;;;;;;;138.33;64.43;;;0.90;99.90;;;;;;10447921;28;20055;-77
2023/01/04 02:54:39;;;;;;;516.93;112.87;;;0.60;99.90;;;;;;10447163;28;20167;-76
2023/01/04 02:59:45;;;;;;;766.87;173.23;;;0.60;99.90;;;;;;10448687;28;20118;-78
2023/01/04 03:12:30;;;;;;;481.60;120.27;;;0.60;99.90;;;;;;10419298;28;20056;-77
2023/01/04 03:16:28;;;;;;;543.03;133.63;;;0.60;99.90;;;;;;10441765;28;20123;-78
2023/01/04 03:21:31;;;;;;;976.57;218.17;;;0.60;99.90;;;;;;10447188;28;20044;-77
2023/01/04 03:43:08;;;;;;;225.10;98.40;;;0.40;99.90;;;;;;10428366;28;20480;-77
2023/01/04 03:48:51;;;;;;;206.73;90.20;;;0.50;99.90;;;;;;10437859;28;20044;-78
2023/01/04 03:53:52;;;;;;;186.73;83.03;;;0.50;99.90;;;;;;10455786;28;20045;-77
2023/01/04 03:58:53;;;;;;;192.47;84.27;;;0.50;99.90;;;;;;10446064;28;20035;-77
2023/01/04 04:09:13;;;;;;;162.77;76.97;;;0.60;99.90;;;;;;10444788;28;20053;-78
2023/01/04 04:14:14;;;;;;;197.07;95.60;;;0.60;99.90;;;;;;10446748;28;20041;-78
2023/01/04 04:19:14;;;;;;;177.47;84.77;;;0.50;99.90;;;;;;10438692;28;20029;-76
2023/01/04 04:24:18;;;;;;;171.10;81.23;;;0.20;99.90;;;;;;10448548;28;20046;-78
2023/01/04 04:29:19;;;;;;;208.23;96.33;;;0.10;99.90;;;;;;10456530;28;20111;-77
2023/01/04 04:34:19;;;;;;;310.97;99.57;;;0.00;99.90;;;;;;10446643;28;20045;-77
2023/01/04 04:39:20;;;;;;;780.23;170.60;;;-0.10;99.90;;;;;;10433216;28;20140;-78
2023/01/04 04:44:20;;;;;;;296.60;97.17;;;-0.20;99.90;;;;;;10441897;28;20065;-78
2023/01/04 04:49:21;;;;;;;204.50;90.13;;;-0.20;99.90;;;;;;10440010;28;20032;-78
2023/01/04 04:54:22;;;;;;;193.23;93.00;;;-0.10;99.90;;;;;;10452916;28;20041;-78
2023/01/04 04:59:22;;;;;;;190.53;86.37;;;0.00;99.90;;;;;;10416744;28;20029;-78
2023/01/04 05:04:23;;;;;;;206.50;94.53;;;0.00;99.90;;;;;;10422153;28;20785;-78
2023/01/04 05:09:23;;;;;;;375.03;114.30;;;0.00;99.90;;;;;;10452821;28;20443;-77
2023/01/04 05:14:24;;;;;;;311.47;105.20;;;-0.10;99.90;;;;;;10450362;28;20049;-79
2023/01/04 05:19:24;;;;;;;220.63;101.37;;;0.00;99.90;;;;;;10454908;28;20385;-78
2023/01/04 05:24:25;;;;;;;183.00;87.77;;;0.00;99.90;;;;;;10446484;28;20032;-78
2023/01/04 05:34:45;;;;;;;168.90;80.80;;;-0.10;99.90;;;;;;10432525;28;20041;-77
2023/01/04 05:39:45;;;;;;;170.03;83.33;;;-0.10;99.90;;;;;;10439332;28;20383;-77
2023/01/04 05:44:46;;;;;;;179.97;87.87;;;-0.20;99.90;;;;;;10442286;28;20037;-77
2023/01/04 05:49:47;;;;;;;199.47;100.57;;;-0.20;99.90;;;;;;10442258;28;20024;-77
2023/01/04 05:54:47;;;;;;;189.27;100.40;;;-0.20;99.90;;;;;;10441601;28;20037;-76
2023/01/04 05:59:48;;;;;;;361.33;160.23;;;-0.10;99.90;;;;;;10441727;28;20040;-77
2023/01/04 06:04:49;;;;;;;296.53;141.87;;;0.00;99.90;;;;;;10441565;28;20029;-77
2023/01/04 06:09:49;;;;;;;214.67;107.87;;;0.00;99.90;;;;;;10441789;28;20122;-76
2023/01/04 06:14:50;;;;;;;188.40;95.53;;;0.00;99.90;;;;;;10441971;28;20663;-77
2023/01/04 06:19:50;;;;;;;187.80;92.23;;;0.00;99.90;;;;;;10443583;28;20029;-77
2023/01/04 06:24:51;;;;;;;173.07;86.40;;;0.00;99.90;;;;;;10449816;28;20075;-77
2023/01/04 06:29:52;;;;;;;193.57;92.47;;;0.00;99.90;;;;;;10449068;28;20039;-78
2023/01/04 06:34:53;;;;;;;234.80;112.60;;;0.10;99.90;;;;;;10448296;28;20028;-76
2023/01/04 06:39:53;;;;;;;308.43;137.83;;;0.10;99.90;;;;;;10448734;28;20040;-77
2023/01/04 06:44:54;;;;;;;242.63;118.67;;;0.10;99.90;;;;;;10435962;28;20382;-77
2023/01/04 06:49:54;;;;;;;284.20;138.07;;;0.00;99.90;;;;;;10447081;28;20021;-76
2023/01/04 06:54:55;;;;;;;350.13;161.80;;;0.00;99.90;;;;;;10448890;28;20056;-77
2023/01/04 06:59:55;;;;;;;301.10;142.37;;;-0.10;99.90;;;;;;10447946;28;20025;-77
2023/01/04 07:04:56;;;;;;;241.07;117.20;;;-0.20;99.90;;;;;;10448481;28;20029;-77
2023/01/04 07:09:56;;;;;;;248.43;116.57;;;-0.20;99.90;;;;;;10447357;28;20080;-77
2023/01/04 07:14:57;;;;;;;265.70;121.43;;;-0.20;99.90;;;;;;10447597;28;20473;-77
2023/01/04 07:19:58;;;;;;;229.03;106.80;;;-0.10;99.90;;;;;;10447167;28;20033;-77
2023/01/04 07:24:58;;;;;;;204.80;102.63;;;-0.10;99.90;;;;;;10447361;28;20116;-76
2023/01/04 07:29:59;;;;;;;217.53;102.30;;;0.00;99.90;;;;;;10446645;28;20029;-77
2023/01/04 07:34:59;;;;;;;216.20;106.07;;;0.00;99.90;;;;;;10445832;28;20171;-77
2023/01/04 07:40:00;;;;;;;235.77;108.40;;;0.10;99.90;;;;;;10446659;28;20024;-76
2023/01/04 07:45:01;;;;;;;172.87;89.50;;;0.20;99.90;;;;;;10446128;28;20423;-77
2023/01/04 07:50:02;;;;;;;203.07;103.00;;;0.30;99.90;;;;;;10447221;28;20079;-77
2023/01/04 07:55:03;;;;;;;199.40;99.50;;;0.40;99.90;;;;;;10445818;28;20110;-77
2023/01/04 08:00:04;;;;;;;194.27;97.63;;;0.60;99.90;;;;;;10445421;28;20078;-78
2023/01/04 08:05:05;;;;;;;212.07;116.57;;;0.80;99.90;;;;;;10446217;28;20025;-76
2023/01/04 08:10:06;;;;;;;219.07;117.67;;;1.00;99.90;;;;;;10445415;28;20052;-76
2023/01/04 08:15:07;;;;;;;216.53;112.60;;;1.20;99.90;;;;;;10445346;28;20028;-76
2023/01/04 08:20:08;;;;;;;186.77;97.90;;;1.40;99.90;;;;;;10445054;28;20103;-75
2023/01/04 08:25:09;;;;;;;163.27;90.20;;;1.60;99.90;;;;;;10444685;28;20476;-76
2023/01/04 08:30:10;;;;;;;179.93;91.80;;;1.80;99.90;;;;;;10444618;28;20037;-76
2023/01/04 08:35:10;;;;;;;175.63;99.50;;;2.00;99.90;;;;;;10443969;28;20087;-77
2023/01/04 08:40:11;;;;;;;188.63;99.13;;;2.10;99.90;;;;;;10443688;28;20033;-76
2023/01/04 08:45:11;;;;;;;221.70;105.87;;;2.30;99.90;;;;;;10444160;28;20037;-76
2023/01/04 08:50:15;;;;;;;217.07;102.50;;;2.50;99.90;;;;;;10443558;28;20048;-76
2023/01/04 08:55:16;;;;;;;275.90;124.30;;;2.70;99.90;;;;;;10443565;28;20033;-75
2023/01/04 09:00:20;;;;;;;230.63;107.47;;;2.90;99.90;;;;;;10443410;28;20021;-76
2023/01/04 09:05:21;;;;;;;166.30;82.40;;;3.20;99.90;;;;;;10443537;28;20029;-75
2023/01/04 09:10:22;;;;;;;208.50;100.20;;;3.60;99.90;;;;;;10442792;28;20119;-76
2023/01/04 09:15:22;;;;;;;140.00;70.67;;;3.80;99.90;;;;;;10443104;28;20029;-76
2023/01/04 09:20:23;;;;;;;156.30;75.40;;;4.10;99.90;;;;;;10442601;28;20125;-78
2023/01/04 09:25:24;;;;;;;113.63;52.27;;;4.30;99.90;;;;;;10442009;28;20033;-77
2023/01/04 09:30:24;;;;;;;81.67;37.00;;;4.60;99.90;;;;;;10442136;28;20037;-76
2023/01/04 09:35:25;;;;;;;44.37;23.87;;;4.80;99.90;;;;;;10442237;28;20031;-77
2023/01/04 09:40:57;;;;;;;59.60;29.17;;;5.00;99.90;;;;;;10442245;28;20036;-75
2023/01/04 09:46:04;;;;;;;58.83;28.03;;;5.30;99.90;;;;;;10443011;28;20107;-75
2023/01/04 09:51:12;;;;;;;58.13;27.83;;;5.50;99.90;;;;;;10441898;28;20072;-77
2023/01/04 09:56:25;;;;;;;45.57;21.47;;;5.70;99.90;;;;;;10441977;28;20119;-75
2023/01/04 10:01:47;;;;;;;55.43;26.17;;;6.00;99.90;;;;;;10441721;28;20037;-76
2023/01/04 10:06:48;;;;;;;23.27;11.60;;;6.20;99.90;;;;;;10441610;28;20025;-75
2023/01/04 10:12:27;;;;;;;18.70;8.53;;;6.50;99.90;;;;;;10441519;28;20056;-75
2023/01/04 10:17:53;;;;;;;22.47;10.83;;;6.70;99.90;;;;;;10441281;28;20033;-76
2023/01/04 10:23:01;;;;;;;;;;;6.80;99.90;;;;;;10431760;28;20442;-77
2023/01/04 10:28:22;;;;;;;40.10;17.77;;;6.80;99.90;;;;;;10440983;28;19905;-74
2023/01/04 10:33:47;;;;;;;38.57;16.60;;;6.90;99.90;;;;;;10441112;28;20044;-75
2023/01/04 10:39:00;;;;;;;26.50;11.47;;;7.00;99.90;;;;;;10441380;28;20124;-76
2023/01/04 10:44:34;;;;;;;18.60;8.83;;;7.10;99.90;;;;;;10440694;28;20103;-74
2023/01/04 10:49:48;;;;;;;29.03;13.70;;;7.10;99.90;;;;;;10441468;28;20051;-75
2023/01/04 10:54:48;;;;;;;26.47;13.53;;;7.10;99.90;;;;;;10440959;28;20358;-75
2023/01/04 11:00:00;;;;;;;15.30;7.80;;;7.20;99.90;;;;;;10441628;28;20068;-75
2023/01/04 11:05:32;;;;;;;26.87;11.67;;;7.20;99.90;;;;;;10440993;28;20025;-77
2023/01/04 11:11:08;;;;;;;21.03;9.70;;;7.20;99.90;;;;;;10447591;28;20076;-76
2023/01/04 11:16:09;;;;;;;28.27;13.43;;;7.10;99.90;;;;;;10434339;28;20044;-75
2023/01/04 11:21:13;;;;;;;19.40;9.30;;;6.90;99.90;;;;;;10447356;28;20033;-75
2023/01/04 11:26:28;;;;;;;19.50;8.47;;;6.80;99.90;;;;;;10447139;28;20032;-76
2023/01/04 11:31:56;;;;;;;17.37;8.53;;;6.60;99.90;;;;;;10447057;28;20049;-75
2023/01/04 11:36:56;;;;;;;22.23;9.73;;;6.50;99.90;;;;;;10446847;28;20085;-75
2023/01/04 11:42:02;;;;;;;21.17;10.10;;;6.60;99.90;;;;;;10446947;28;20037;-76
2023/01/04 11:47:20;;;;;;;19.90;7.70;;;6.60;99.90;;;;;;10446294;28;20108;-75
2023/01/04 11:52:26;;;;;;;16.30;7.33;;;6.60;99.90;;;;;;10446400;28;20037;-75
2023/01/04 11:57:26;;;;;;;16.47;7.60;;;6.70;99.90;;;;;;10446071;28;20066;-74
2023/01/04 12:02:27;;;;;;;23.17;10.37;;;6.80;99.90;;;;;;10446052;28;20125;-75
2023/01/04 12:07:31;;;;;;;24.47;9.37;;;6.80;99.90;;;;;;10445653;28;20082;-75
2023/01/04 12:12:33;;;;;;;27.13;11.20;;;6.80;99.90;;;;;;10445398;28;20099;-76
2023/01/04 12:17:48;;;;;;;19.93;9.00;;;6.80;99.90;;;;;;10444854;28;20139;-74
2023/01/04 12:22:49;;;;;;;20.75;9.77;;;6.80;99.90;;;;;;10445325;28;20021;-74
2023/01/04 12:27:51;;;;;;;24.83;10.53;;;6.80;99.90;;;;;;10444761;28;20032;-75
2023/01/04 12:32:51;;;;;;;19.07;9.50;;;6.70;99.90;;;;;;10444410;28;20128;-75
2023/01/04 12:37:52;;;;;;;22.47;9.67;;;6.60;99.90;;;;;;10444588;28;20029;-75
2023/01/04 12:43:14;;;;;;;18.60;9.77;;;6.50;99.90;;;;;;10444583;28;20795;-75
2023/01/04 12:53:57;;;;;;;16.47;8.57;;;6.50;99.90;;;;;;10434285;28;20551;-75
2023/01/04 12:59:10;;;;;;;14.53;8.43;;;6.50;99.90;;;;;;10444484;28;20052;-75
2023/01/04 13:04:39;;;;;;;14.93;7.70;;;6.50;99.90;;;;;;10443097;28;20089;-75
2023/01/04 13:09:45;;;;;;;12.67;6.83;;;6.60;99.90;;;;;;10423427;28;20504;-75
2023/01/04 13:14:47;;;;;;;;;;;6.60;99.90;;;;;;10426133;28;20037;-75
2023/01/04 13:19:49;;;;;;;13.17;6.03;;;6.80;99.90;;;;;;10435603;28;19955;-76
2023/01/04 13:24:50;;;;;;;10.73;5.53;;;6.90;99.90;;;;;;10431452;28;20588;-76
2023/01/04 13:29:51;;;;;;;11.10;4.93;;;7.00;99.90;;;;;;10441172;28;20079;-77
2023/01/04 13:34:58;;;;;;;9.90;4.83;;;7.10;99.90;;;;;;10438535;28;20047;-75
2023/01/04 13:40:12;;;;;;;9.77;4.93;;;7.20;99.90;;;;;;10428562;28;20037;-75
2023/01/04 13:45:37;;;;;;;9.13;4.93;;;7.10;99.90;;;;;;10441217;28;20022;-77
2023/01/04 13:50:48;;;;;;;9.17;5.03;;;7.20;99.90;;;;;;10441799;28;20033;-77
2023/01/04 13:55:51;;;;;;;11.77;6.20;;;7.10;99.90;;;;;;10439815;28;20486;-76
2023/01/04 14:01:02;;;;;;;14.60;8.40;;;7.10;99.90;;;;;;10437811;28;20033;-78
2023/01/04 14:06:08;;;;;;;20.50;9.07;;;7.10;99.90;;;;;;10426856;28;20084;-76
2023/01/04 14:11:57;;;;;;;24.93;10.77;;;7.10;99.90;;;;;;10430049;28;20165;-76
2023/01/04 14:16:36;;;;;;;12.37;6.43;;;7.00;99.90;;;;;;10434291;28;20098;-78
2023/01/04 14:21:36;;;;;;;32.90;13.53;;;7.00;99.90;;;;;;10440179;28;20492;-77
2023/01/04 14:26:40;;;;;;;24.73;11.10;;;7.00;99.90;;;;;;10424621;28;20042;-76
2023/01/04 14:31:42;;;;;;;37.13;15.57;;;7.00;99.90;;;;;;10437622;28;20041;-77
2023/01/04 14:36:43;;;;;;;25.23;12.40;;;7.00;99.90;;;;;;10439063;28;20037;-77
2023/01/04 14:41:54;;;;;;;20.17;9.00;;;7.00;99.90;;;;;;10442807;28;20055;-75
2023/01/04 14:46:59;;;;;;;21.10;10.37;;;7.00;99.90;;;;;;10440580;28;20420;-76
2023/01/04 14:52:02;;;;;;;30.30;11.80;;;7.00;99.90;;;;;;10448196;28;20036;-75
2023/01/04 14:57:02;;;;;;;16.73;8.30;;;7.00;99.90;;;;;;10446184;28;20112;-75
2023/01/04 15:02:03;;;;;;;40.20;16.27;;;7.00;99.90;;;;;;10441755;28;20036;-75
2023/01/04 15:07:04;;;;;;;32.87;14.10;;;7.00;99.90;;;;;;10447996;28;20029;-75
2023/01/04 15:12:05;;;;;;;14.60;7.67;;;7.00;99.90;;;;;;10445875;28;20064;-75
2023/01/04 15:17:05;;;;;;;29.60;12.60;;;7.00;99.90;;;;;;10441166;28;20029;-78
2023/01/04 15:22:06;;;;;;;43.37;17.93;;;7.00;99.90;;;;;;10446069;28;20038;-77
2023/01/04 15:27:07;;;;;;;17.83;8.03;;;7.00;99.90;;;;;;10446533;28;20037;-75
2023/01/04 15:32:07;;;;;;;33.00;14.63;;;6.90;99.90;;;;;;10437863;28;20043;-76
2023/01/04 15:37:08;;;;;;;26.63;11.67;;;6.80;99.90;;;;;;10446634;28;20036;-74
2023/01/04 15:47:29;;;;;;;21.87;10.77;;;6.80;99.90;;;;;;10446208;28;20041;-76
2023/01/04 15:52:30;;;;;;;21.57;9.43;;;6.70;99.90;;;;;;10445440;28;20037;-75
2023/01/04 15:57:31;;;;;;;16.77;7.83;;;6.60;99.90;;;;;;10446771;28;20523;-76
2023/01/04 16:02:31;;;;;;;26.03;9.90;;;6.50;99.90;;;;;;10445881;28;20132;-75
2023/01/04 16:07:33;;;;;;;19.97;10.00;;;6.40;99.90;;;;;;10444277;28;20483;-76
2023/01/04 16:12:46;;;;;;;20.50;10.33;;;6.40;99.90;;;;;;10441711;28;20059;-75
2023/01/04 16:17:47;;;;;;;17.93;8.27;;;6.40;99.90;;;;;;10421215;28;20024;-75
2023/01/04 16:22:48;;;;;;;24.93;11.67;;;6.40;99.90;;;;;;10436579;28;20029;-76
2023/01/04 16:27:48;;;;;;;19.10;9.47;;;6.30;99.90;;;;;;10434672;28;20548;-75
2023/01/04 16:32:49;;;;;;;20.63;10.37;;;6.40;99.90;;;;;;10435721;28;20048;-78
2023/01/04 16:37:50;;;;;;;21.50;10.37;;;6.30;99.90;;;;;;10435512;28;20051;-76
2023/01/04 16:42:50;;;;;;;19.63;10.63;;;6.40;99.90;;;;;;10437787;28;20045;-75
2023/01/04 16:47:52;;;;;;;22.90;11.80;;;6.40;99.90;;;;;;10431792;28;20124;-77
2023/01/04 16:52:53;;;;;;;18.83;9.60;;;6.40;99.90;;;;;;10448413;28;20041;-76
2023/01/04 16:57:53;;;;;;;19.77;9.63;;;6.40;99.90;;;;;;10440066;28;20029;-77
2023/01/04 17:02:54;;;;;;;30.57;12.83;;;6.40;99.90;;;;;;10448686;28;20028;-75
2023/01/04 17:07:54;;;;;;;23.13;11.63;;;6.40;99.90;;;;;;10439258;28;20043;-75
2023/01/04 17:12:55;;;;;;;36.00;16.20;;;6.40;99.90;;;;;;10441517;28;20053;-74
2023/01/04 17:17:55;;;;;;;26.87;12.50;;;6.40;99.90;;;;;;10453159;28;20025;-75
2023/01/04 17:22:56;;;;;;;23.73;11.70;;;6.40;99.90;;;;;;10440599;28;20037;-75
2023/01/04 17:27:57;;;;;;;38.07;16.53;;;6.40;99.90;;;;;;10434861;28;20446;-75
2023/01/04 17:32:58;;;;;;;36.77;15.03;;;6.40;99.90;;;;;;10428417;28;20041;-75
2023/01/04 17:37:58;;;;;;;34.97;15.47;;;6.40;99.90;;;;;;10440292;28;20036;-75
2023/01/04 17:42:59;;;;;;;30.57;13.33;;;6.40;99.90;;;;;;10441816;28;20125;-77
2023/01/04 17:48:00;;;;;;;24.00;11.87;;;6.40;99.90;;;;;;10441201;28;20029;-77
2023/01/04 17:53:00;;;;;;;28.20;12.70;;;6.50;99.90;;;;;;10461029;28;20067;-76
2023/01/04 17:58:01;;;;;;;28.90;12.50;;;6.50;99.90;;;;;;10442469;28;20502;-76
2023/01/04 18:03:01;;;;;;;22.70;12.00;;;6.60;99.90;;;;;;10431177;28;20025;-76
2023/01/04 18:08:02;;;;;;;25.87;13.17;;;6.60;99.90;;;;;;10437929;28;20120;-76
2023/01/04 18:13:03;;;;;;;25.70;11.23;;;6.60;99.90;;;;;;10442355;28;20675;-77
2023/01/04 18:18:03;;;;;;;36.10;16.33;;;6.70;99.90;;;;;;10448003;28;20032;-77
2023/01/04 18:23:04;;;;;;;27.10;13.30;;;6.80;99.90;;;;;;10448032;28;20043;-76
2023/01/04 18:28:04;;;;;;;27.97;13.10;;;6.80;99.90;;;;;;10449920;23;20061;-77
2023/01/04 18:33:05;;;;;;;26.03;12.70;;;6.90;99.90;;;;;;10398227;28;20042;-77
2023/01/04 18:38:06;;;;;;;21.70;11.20;;;6.90;99.90;;;;;;10388476;28;20537;-77
2023/01/04 18:43:07;;;;;;;22.70;11.43;;;6.90;99.90;;;;;;10399674;28;20040;-76
2023/01/04 18:48:07;;;;;;;25.27;13.47;;;6.90;99.90;;;;;;10402651;28;20028;-76
2023/01/04 18:53:08;;;;;;;24.73;13.37;;;7.00;99.90;;;;;;10402578;28;20052;-76
2023/01/04 18:58:09;;;;;;;20.40;11.63;;;7.00;99.90;;;;;;10400763;28;20058;-78
2023/01/04 19:03:09;;;;;;;25.27;13.33;;;7.00;99.90;;;;;;10396825;28;20042;-75
2023/01/04 19:08:10;;;;;;;25.97;14.20;;;7.10;99.90;;;;;;10403570;28;20060;-75
2023/01/04 19:13:10;;;;;;;24.13;12.50;;;7.00;99.90;;;;;;10385736;28;20034;-75
2023/01/04 19:18:11;;;;;;;26.53;14.73;;;7.10;99.90;;;;;;10365112;28;20033;-76
2023/01/04 19:23:12;;;;;;;21.67;11.93;;;7.10;99.90;;;;;;10376792;28;20033;-75
2023/01/04 19:28:13;;;;;;;21.10;12.10;;;7.10;99.90;;;;;;10369000;28;20072;-76
2023/01/04 19:33:13;;;;;;;23.47;11.97;;;7.10;99.90;;;;;;10370737;28;20674;-75
2023/01/04 19:38:14;;;;;;;23.83;12.67;;;7.20;99.90;;;;;;10365687;28;20041;-78
2023/01/04 19:43:14;;;;;;;25.83;14.07;;;7.20;99.90;;;;;;10364634;28;20038;-75
2023/01/04 19:48:15;;;;;;;19.90;11.50;;;7.20;99.90;;;;;;10373067;28;20041;-76
2023/01/04 19:53:15;;;;;;;23.23;13.23;;;7.30;99.90;;;;;;10363360;28;20057;-76
2023/01/04 19:58:16;;;;;;;19.10;11.17;;;7.30;99.90;;;;;;10376807;28;20079;-77
2023/01/04 20:03:17;;;;;;;17.97;11.63;;;7.30;99.90;;;;;;10374294;28;20034;-76
2023/01/04 20:08:18;;;;;;;17.80;10.90;;;7.40;99.90;;;;;;10360442;28;20034;-76
2023/01/04 20:13:18;;;;;;;18.47;10.33;;;7.40;99.90;;;;;;10362728;28;20109;-76
2023/01/04 20:18:20;;;;;;;17.03;9.70;;;7.50;99.90;;;;;;10370852;28;20424;-76
2023/01/04 20:23:21;;;;;;;20.53;11.27;;;7.50;99.90;;;;;;10362240;28;20071;-78
2023/01/04 20:28:23;;;;;;;18.70;10.73;;;7.50;99.90;;;;;;10360016;28;20049;-78
2023/01/04 20:33:23;;;;;;;20.30;11.47;;;7.50;99.90;;;;;;10349031;28;20052;-78
2023/01/04 20:38:24;;;;;;;19.87;11.67;;;7.60;99.90;;;;;;10347039;28;20545;-75
2023/01/04 20:43:35;;;;;;;17.57;9.50;;;7.60;99.90;;;;;;10362316;28;20022;-75
2023/01/04 20:48:35;;;;;;;14.00;8.20;;;7.70;99.90;;;;;;10346384;28;20026;-76
2023/01/04 20:53:36;;;;;;;17.20;8.83;;;7.60;99.90;;;;;;10362491;28;20111;-75
2023/01/04 20:58:38;;;;;;;17.73;10.30;;;7.60;99.90;;;;;;10361029;28;20410;-76
2023/01/04 21:03:39;;;;;;;21.33;10.80;;;7.70;99.90;;;;;;10349404;28;20018;-78
2023/01/04 21:08:41;;;;;;;20.33;11.93;;;7.70;99.90;;;;;;10360636;28;20038;-76
2023/01/04 21:13:42;;;;;;;17.70;10.57;;;7.60;99.90;;;;;;10360239;28;20057;-75
2023/01/04 21:18:42;;;;;;;19.73;11.33;;;7.60;99.90;;;;;;10371241;28;20026;-75
2023/01/04 21:23:44;;;;;;;21.33;11.03;;;7.60;99.90;;;;;;10360312;28;20033;-75
2023/01/04 21:28:45;;;;;;;18.63;10.63;;;7.60;99.90;;;;;;10360262;28;20053;-75
2023/01/04 21:33:46;;;;;;;18.97;10.57;;;7.70;99.90;;;;;;10367433;28;20048;-76
2023/01/04 21:38:48;;;;;;;21.00;11.77;;;7.70;99.90;;;;;;10359917;28;20666;-75
2023/01/04 21:43:50;;;;;;;20.90;12.00;;;7.70;99.90;;;;;;10361002;28;20029;-78
2023/01/04 21:48:56;;;;;;;22.47;11.90;;;7.80;99.90;;;;;;10363888;28;20030;-77
2023/01/04 21:53:57;;;;;;;19.17;12.23;;;7.80;99.90;;;;;;10360015;28;20046;-76
2023/01/04 21:58:57;;;;;;;21.33;13.70;;;7.70;99.90;;;;;;10359252;28;20676;-75
2023/01/04 22:03:58;;;;;;;22.07;12.87;;;7.70;99.90;;;;;;10383660;23;20056;-77
2023/01/04 22:08:58;;;;;;;21.80;13.13;;;7.70;99.90;;;;;;10441101;28;20051;-77
2023/01/04 22:13:59;;;;;;;24.33;13.17;;;7.70;99.90;;;;;;10433218;28;20818;-75
2023/01/04 22:18:59;;;;;;;26.70;14.10;;;7.70;99.90;;;;;;10441367;28;20057;-76
2023/01/04 22:24:00;;;;;;;25.03;13.70;;;7.70;99.90;;;;;;10441367;28;20086;-75
2023/01/04 22:29:01;;;;;;;30.40;15.43;;;7.70;99.90;;;;;;10435713;28;20044;-76
2023/01/04 22:34:01;;;;;;;27.00;14.30;;;7.70;99.90;;;;;;10440959;28;20041;-76
2023/01/04 22:39:02;;;;;;;19.43;11.57;;;7.70;99.90;;;;;;10438056;28;20726;-75
2023/01/04 22:44:04;;;;;;;21.57;12.27;;;7.70;99.90;;;;;;10440713;28;20087;-75
2023/01/04 22:49:05;;;;;;;22.40;12.77;;;7.70;99.90;;;;;;10426948;28;20036;-77
2023/01/04 22:54:06;;;;;;;22.77;13.93;;;7.80;99.90;;;;;;10440725;28;20472;-75
2023/01/04 22:59:06;;;;;;;23.10;13.40;;;7.70;99.90;;;;;;10438412;28;20028;-75
2023/01/04 23:04:16;;;;;;;23.60;13.80;;;7.70;99.90;;;;;;10445267;28;20625;-75
2023/01/04 23:09:17;;;;;;;23.57;14.27;;;7.70;99.90;;;;;;10442747;28;20025;-77
2023/01/04 23:14:18;;;;;;;19.50;12.57;;;7.70;99.90;;;;;;10441519;28;20040;-75
2023/01/04 23:19:18;;;;;;;23.40;13.87;;;7.70;99.90;;;;;;10447770;28;20029;-75
2023/01/04 23:24:19;;;;;;;21.07;13.23;;;7.70;99.90;;;;;;10440334;28;20485;-75
2023/01/04 23:29:19;;;;;;;20.17;11.73;;;7.70;99.90;;;;;;10446054;28;20051;-75
2023/01/04 23:34:20;;;;;;;23.80;12.30;;;7.70;99.90;;;;;;10436608;28;20055;-75
2023/01/04 23:39:20;;;;;;;18.60;11.80;;;7.80;99.90;;;;;;10445786;28;20040;-75
2023/01/04 23:44:23;;;;;;;20.17;12.03;;;7.80;99.90;;;;;;10446951;28;20033;-75
2023/01/04 23:49:26;;;;;;;19.43;12.37;;;7.80;99.90;;;;;;10447036;28;20047;-76
2023/01/04 23:54:27;;;;;;;19.50;11.90;;;7.70;99.90;;;;;;10439788;28;20128;-75
2023/01/04 23:59:28;;;;;;;18.03;11.77;;;7.70;99.90;;;;;;10444426;28;20029;-75
